ARG1724 SABE-SAAV
Flight info
| Callsign | ARG1724 |
|---|---|
| Flight time | 0h 50m |
| Altitude | 24000 |
| Route | BIVAM4B BIVAM UW8 PAR DCT SVO |
| Aircraft | B738/M-SDE2E3FGHIRWXY/LB1 |
Departure
| Time | 2026-05-07 13:51 |
|---|---|
| Airport | Aeroparque Jorge Newbery (SABE) |
Arrival
| Time | 2026-05-07 14:41 |
|---|---|
| Airport | Sauce Viejo Airport (SAAV) |
| Time | Latitude | Longitude | Altitude | Speed | Heading |
|---|---|---|---|---|---|
| 2026-05-07 13:22 | -34.55739 | -58.41366 | 25 ft | 0 kts | 33° |
| 2026-05-07 13:42 | -34.55741 | -58.41368 | 25 ft | 3 kts | 33° |
| 2026-05-07 13:43 | -34.55764 | -58.41385 | 26 ft | 4 kts | 19° |
| 2026-05-07 13:43 | -34.55781 | -58.41385 | 26 ft | 3 kts | 304° |
| 2026-05-07 13:43 | -34.55796 | -58.41359 | 30 ft | 4 kts | 304° |
| 2026-05-07 13:43 | -34.55801 | -58.41349 | 27 ft | 0 kts | 304° |
| 2026-05-07 13:46 | -34.55800 | -58.41353 | 27 ft | 2 kts | 304° |
| 2026-05-07 13:46 | -34.55768 | -58.41409 | 26 ft | 13 kts | 304° |
| 2026-05-07 13:46 | -34.55724 | -58.41513 | 25 ft | 14 kts | 280° |
| 2026-05-07 13:47 | -34.55786 | -58.41587 | 25 ft | 13 kts | 176° |
| 2026-05-07 13:47 | -34.55840 | -58.41504 | 27 ft | 13 kts | 117° |
| 2026-05-07 13:47 | -34.55883 | -58.41401 | 29 ft | 15 kts | 117° |
| 2026-05-07 13:47 | -34.55936 | -58.41282 | 28 ft | 18 kts | 125° |
| 2026-05-07 13:48 | -34.56016 | -58.41154 | 27 ft | 20 kts | 127° |
| 2026-05-07 13:48 | -34.56106 | -58.41010 | 25 ft | 22 kts | 127° |
| 2026-05-07 13:48 | -34.56177 | -58.40854 | 24 ft | 19 kts | 107° |
| 2026-05-07 13:48 | -34.56218 | -58.40747 | 25 ft | 13 kts | 123° |
| 2026-05-07 13:49 | -34.56268 | -58.40657 | 27 ft | 13 kts | 124° |
| 2026-05-07 13:49 | -34.56321 | -58.40572 | 27 ft | 12 kts | 135° |
| 2026-05-07 13:49 | -34.56384 | -58.40502 | 27 ft | 12 kts | 138° |
| 2026-05-07 13:49 | -34.56446 | -58.40435 | 26 ft | 12 kts | 138° |
| 2026-05-07 13:50 | -34.56513 | -58.40382 | 27 ft | 12 kts | 179° |
| 2026-05-07 13:50 | -34.56556 | -58.40442 | 25 ft | 10 kts | 283° |
| 2026-05-07 13:50 | -34.56546 | -58.40463 | 26 ft | 1 kts | 302° |
| 2026-05-07 13:50 | -34.56448 | -58.40643 | 26 ft | 62 kts | 304° |
| 2026-05-07 13:51 | -34.56067 | -58.41322 | 25 ft | 131 kts | 304° |
| 2026-05-07 13:51 | -34.55669 | -58.42023 | 107 ft | 161 kts | 304° |
| 2026-05-07 13:51 | -34.54799 | -58.43545 | 1063 ft | 170 kts | 303° |
| 2026-05-07 13:51 | -34.54188 | -58.44219 | 1494 ft | 188 kts | 323° |
| 2026-05-07 13:52 | -34.52793 | -58.44597 | 1850 ft | 228 kts | 2° |
| 2026-05-07 13:52 | -34.51254 | -58.43847 | 2089 ft | 252 kts | 33° |
| 2026-05-07 13:52 | -34.49711 | -58.42653 | 2338 ft | 276 kts | 33° |
| 2026-05-07 13:52 | -34.48050 | -58.41376 | 2901 ft | 287 kts | 33° |
| 2026-05-07 13:53 | -34.46349 | -58.40067 | 3725 ft | 290 kts | 34° |
| 2026-05-07 13:53 | -34.44654 | -58.38813 | 4793 ft | 284 kts | 25° |
| 2026-05-07 13:53 | -34.42756 | -58.38409 | 5638 ft | 285 kts | 353° |
| 2026-05-07 13:53 | -34.40910 | -58.39234 | 6488 ft | 284 kts | 326° |
| 2026-05-07 13:54 | -34.39396 | -58.40781 | 7396 ft | 280 kts | 313° |
| 2026-05-07 13:54 | -34.38048 | -58.42479 | 8271 ft | 280 kts | 310° |
| 2026-05-07 13:54 | -34.36729 | -58.44206 | 9143 ft | 279 kts | 310° |
| 2026-05-07 13:54 | -34.35424 | -58.45919 | 9932 ft | 281 kts | 310° |
| 2026-05-07 13:55 | -34.34053 | -58.47711 | 10221 ft | 302 kts | 311° |
| 2026-05-07 13:55 | -34.32571 | -58.49637 | 10410 ft | 325 kts | 311° |
| 2026-05-07 13:55 | -34.30977 | -58.51690 | 10636 ft | 344 kts | 311° |
| 2026-05-07 13:55 | -34.29313 | -58.53823 | 11130 ft | 352 kts | 311° |
| 2026-05-07 13:56 | -34.27626 | -58.55973 | 11892 ft | 351 kts | 311° |
| 2026-05-07 13:56 | -34.25953 | -58.58102 | 12855 ft | 346 kts | 311° |
| 2026-05-07 13:56 | -34.24306 | -58.60196 | 13777 ft | 343 kts | 311° |
| 2026-05-07 13:56 | -34.22662 | -58.62285 | 14566 ft | 343 kts | 312° |
| 2026-05-07 13:57 | -34.21019 | -58.64371 | 15389 ft | 341 kts | 312° |
| 2026-05-07 13:57 | -34.19384 | -58.66446 | 16204 ft | 340 kts | 313° |
| 2026-05-07 13:57 | -34.17751 | -58.68517 | 16992 ft | 340 kts | 313° |
| 2026-05-07 13:57 | -34.16118 | -58.70584 | 17754 ft | 340 kts | 313° |
| 2026-05-07 13:58 | -34.14486 | -58.72651 | 18404 ft | 341 kts | 314° |
| 2026-05-07 13:58 | -34.12846 | -58.74725 | 19016 ft | 342 kts | 314° |
| 2026-05-07 13:58 | -34.11199 | -58.76807 | 19614 ft | 343 kts | 314° |
| 2026-05-07 13:58 | -34.09547 | -58.78896 | 20225 ft | 344 kts | 314° |
| 2026-05-07 13:59 | -34.07898 | -58.80980 | 20948 ft | 341 kts | 315° |
| 2026-05-07 13:59 | -34.06273 | -58.83033 | 21836 ft | 335 kts | 315° |
| 2026-05-07 13:59 | -34.04685 | -58.85040 | 22731 ft | 328 kts | 315° |
| 2026-05-07 13:59 | -34.03109 | -58.87030 | 23331 ft | 330 kts | 315° |
| 2026-05-07 14:00 | -34.01515 | -58.89040 | 23599 ft | 331 kts | 316° |
| 2026-05-07 14:00 | -33.99935 | -58.91034 | 23626 ft | 328 kts | 316° |
| 2026-05-07 14:00 | -33.98346 | -58.93021 | 23647 ft | 330 kts | 317° |
| 2026-05-07 14:00 | -33.96624 | -58.94839 | 23660 ft | 329 kts | 322° |
| 2026-05-07 14:01 | -33.94733 | -58.96382 | 23663 ft | 329 kts | 327° |
| 2026-05-07 14:01 | -33.92778 | -58.97814 | 23663 ft | 329 kts | 328° |
| 2026-05-07 14:01 | -33.90816 | -58.99234 | 23658 ft | 329 kts | 328° |
| 2026-05-07 14:01 | -33.88854 | -59.00652 | 23660 ft | 329 kts | 328° |
| 2026-05-07 14:02 | -33.86893 | -59.02072 | 23660 ft | 329 kts | 328° |
| 2026-05-07 14:02 | -33.84934 | -59.03493 | 23660 ft | 329 kts | 328° |
| 2026-05-07 14:02 | -33.82978 | -59.04915 | 23666 ft | 328 kts | 328° |
| 2026-05-07 14:02 | -33.81026 | -59.06334 | 23660 ft | 328 kts | 328° |
| 2026-05-07 14:03 | -33.79070 | -59.07758 | 23663 ft | 328 kts | 328° |
| 2026-05-07 14:03 | -33.77116 | -59.09180 | 23662 ft | 328 kts | 328° |
| 2026-05-07 14:03 | -33.75162 | -59.10602 | 23662 ft | 328 kts | 328° |
| 2026-05-07 14:03 | -33.73207 | -59.12024 | 23663 ft | 328 kts | 328° |
| 2026-05-07 14:04 | -33.71253 | -59.13445 | 23667 ft | 328 kts | 328° |
| 2026-05-07 14:04 | -33.69298 | -59.14866 | 23665 ft | 329 kts | 328° |
| 2026-05-07 14:04 | -33.67345 | -59.16285 | 23669 ft | 328 kts | 328° |
| 2026-05-07 14:04 | -33.65387 | -59.17706 | 23669 ft | 328 kts | 328° |
| 2026-05-07 14:05 | -33.63431 | -59.19125 | 23673 ft | 328 kts | 328° |
| 2026-05-07 14:05 | -33.61477 | -59.20542 | 23674 ft | 329 kts | 328° |
| 2026-05-07 14:05 | -33.59518 | -59.21962 | 23676 ft | 329 kts | 328° |
| 2026-05-07 14:05 | -33.57562 | -59.23380 | 23675 ft | 329 kts | 328° |
| 2026-05-07 14:06 | -33.55604 | -59.24797 | 23680 ft | 329 kts | 328° |
| 2026-05-07 14:06 | -33.53642 | -59.26217 | 23679 ft | 329 kts | 328° |
| 2026-05-07 14:06 | -33.51683 | -59.27634 | 23679 ft | 329 kts | 328° |
| 2026-05-07 14:06 | -33.49718 | -59.29054 | 23683 ft | 330 kts | 328° |
| 2026-05-07 14:07 | -33.47756 | -59.30471 | 23683 ft | 330 kts | 328° |
| 2026-05-07 14:07 | -33.45792 | -59.31889 | 23681 ft | 330 kts | 328° |
| 2026-05-07 14:07 | -33.43824 | -59.33310 | 23682 ft | 330 kts | 328° |
| 2026-05-07 14:07 | -33.41858 | -59.34728 | 23683 ft | 330 kts | 328° |
| 2026-05-07 14:08 | -33.39890 | -59.36147 | 23684 ft | 330 kts | 328° |
| 2026-05-07 14:08 | -33.37923 | -59.37564 | 23687 ft | 330 kts | 328° |
| 2026-05-07 14:08 | -33.35956 | -59.38981 | 23687 ft | 330 kts | 328° |
| 2026-05-07 14:08 | -33.33985 | -59.40400 | 23691 ft | 330 kts | 328° |
| 2026-05-07 14:09 | -33.32016 | -59.41816 | 23691 ft | 330 kts | 328° |
| 2026-05-07 14:09 | -33.30048 | -59.43231 | 23688 ft | 330 kts | 328° |
| 2026-05-07 14:09 | -33.28080 | -59.44645 | 23692 ft | 330 kts | 328° |
| 2026-05-07 14:09 | -33.26108 | -59.46062 | 23689 ft | 330 kts | 328° |
| 2026-05-07 14:10 | -33.24141 | -59.47473 | 23693 ft | 330 kts | 328° |
| 2026-05-07 14:10 | -33.22169 | -59.48888 | 23698 ft | 330 kts | 328° |
| 2026-05-07 14:10 | -33.20200 | -59.50300 | 23699 ft | 330 kts | 328° |
| 2026-05-07 14:10 | -33.18230 | -59.51712 | 23696 ft | 330 kts | 328° |
| 2026-05-07 14:11 | -33.16260 | -59.53123 | 23699 ft | 330 kts | 328° |
| 2026-05-07 14:11 | -33.14290 | -59.54533 | 23703 ft | 330 kts | 328° |
| 2026-05-07 14:11 | -33.12316 | -59.55946 | 23702 ft | 330 kts | 328° |
| 2026-05-07 14:11 | -33.10347 | -59.57355 | 23702 ft | 330 kts | 328° |
| 2026-05-07 14:12 | -33.08373 | -59.58766 | 23702 ft | 330 kts | 328° |
| 2026-05-07 14:12 | -33.06401 | -59.60174 | 23708 ft | 330 kts | 328° |
| 2026-05-07 14:12 | -33.04430 | -59.61582 | 23706 ft | 331 kts | 328° |
| 2026-05-07 14:12 | -33.02458 | -59.62989 | 23708 ft | 331 kts | 328° |
| 2026-05-07 14:13 | -33.00485 | -59.64396 | 23707 ft | 330 kts | 328° |
| 2026-05-07 14:13 | -32.98510 | -59.65804 | 23711 ft | 330 kts | 328° |
| 2026-05-07 14:13 | -32.96538 | -59.67210 | 23712 ft | 330 kts | 328° |
| 2026-05-07 14:13 | -32.94566 | -59.68614 | 23710 ft | 330 kts | 328° |
| 2026-05-07 14:14 | -32.92595 | -59.70017 | 23711 ft | 330 kts | 328° |
| 2026-05-07 14:14 | -32.90624 | -59.71420 | 23716 ft | 330 kts | 328° |
| 2026-05-07 14:14 | -32.88652 | -59.72822 | 23716 ft | 330 kts | 328° |
| 2026-05-07 14:14 | -32.86682 | -59.74221 | 23718 ft | 330 kts | 328° |
| 2026-05-07 14:15 | -32.84707 | -59.75625 | 23716 ft | 330 kts | 328° |
| 2026-05-07 14:15 | -32.82738 | -59.77022 | 23721 ft | 330 kts | 328° |
| 2026-05-07 14:15 | -32.80763 | -59.78424 | 23721 ft | 330 kts | 328° |
| 2026-05-07 14:15 | -32.78789 | -59.79824 | 23720 ft | 331 kts | 328° |
| 2026-05-07 14:16 | -32.76814 | -59.81224 | 23722 ft | 331 kts | 328° |
| 2026-05-07 14:16 | -32.74835 | -59.82626 | 23727 ft | 331 kts | 328° |
| 2026-05-07 14:16 | -32.72859 | -59.84026 | 23727 ft | 331 kts | 328° |
| 2026-05-07 14:16 | -32.70857 | -59.85443 | 23726 ft | 331 kts | 328° |
| 2026-05-07 14:17 | -32.68875 | -59.86845 | 23732 ft | 331 kts | 328° |
| 2026-05-07 14:17 | -32.66927 | -59.88224 | 23723 ft | 328 kts | 328° |
| 2026-05-07 14:17 | -32.64958 | -59.89615 | 23722 ft | 323 kts | 328° |
| 2026-05-07 14:17 | -32.63037 | -59.90972 | 23727 ft | 322 kts | 328° |
| 2026-05-07 14:18 | -32.61134 | -59.92315 | 23727 ft | 323 kts | 329° |
| 2026-05-07 14:18 | -32.59236 | -59.93755 | 23556 ft | 326 kts | 324° |
| 2026-05-07 14:18 | -32.57482 | -59.95467 | 23347 ft | 318 kts | 321° |
| 2026-05-07 14:18 | -32.55823 | -59.97131 | 22942 ft | 314 kts | 321° |
| 2026-05-07 14:19 | -32.54168 | -59.98791 | 22503 ft | 310 kts | 321° |
| 2026-05-07 14:19 | -32.52530 | -60.00430 | 22045 ft | 306 kts | 321° |
| 2026-05-07 14:19 | -32.50894 | -60.02064 | 21600 ft | 303 kts | 321° |
| 2026-05-07 14:19 | -32.49310 | -60.03644 | 21167 ft | 300 kts | 320° |
| 2026-05-07 14:20 | -32.47722 | -60.05225 | 20736 ft | 297 kts | 320° |
| 2026-05-07 14:20 | -32.46149 | -60.06791 | 20314 ft | 294 kts | 320° |
| 2026-05-07 14:20 | -32.44585 | -60.08346 | 19892 ft | 292 kts | 320° |
| 2026-05-07 14:20 | -32.43040 | -60.09882 | 19489 ft | 289 kts | 320° |
| 2026-05-07 14:21 | -32.41506 | -60.11406 | 19082 ft | 287 kts | 320° |
| 2026-05-07 14:21 | -32.39982 | -60.12919 | 18682 ft | 285 kts | 320° |
| 2026-05-07 14:21 | -32.38466 | -60.14422 | 18283 ft | 283 kts | 320° |
| 2026-05-07 14:21 | -32.36964 | -60.15912 | 17864 ft | 281 kts | 320° |
| 2026-05-07 14:22 | -32.35471 | -60.17392 | 17419 ft | 279 kts | 319° |
| 2026-05-07 14:22 | -32.33985 | -60.18865 | 17012 ft | 278 kts | 319° |
| 2026-05-07 14:22 | -32.32499 | -60.20341 | 16603 ft | 280 kts | 319° |
| 2026-05-07 14:22 | -32.31001 | -60.21824 | 16203 ft | 283 kts | 319° |
| 2026-05-07 14:23 | -32.29459 | -60.23349 | 15804 ft | 297 kts | 319° |
| 2026-05-07 14:23 | -32.27845 | -60.24947 | 15374 ft | 306 kts | 318° |
| 2026-05-07 14:23 | -32.26210 | -60.26567 | 14924 ft | 306 kts | 318° |
| 2026-05-07 14:23 | -32.24577 | -60.28178 | 14474 ft | 306 kts | 317° |
| 2026-05-07 14:24 | -32.22947 | -60.29786 | 14021 ft | 305 kts | 317° |
| 2026-05-07 14:24 | -32.21318 | -60.31393 | 13581 ft | 305 kts | 316° |
| 2026-05-07 14:24 | -32.19688 | -60.33002 | 13100 ft | 306 kts | 316° |
| 2026-05-07 14:24 | -32.18058 | -60.34610 | 12660 ft | 305 kts | 316° |
| 2026-05-07 14:25 | -32.16433 | -60.36210 | 12231 ft | 304 kts | 316° |
| 2026-05-07 14:25 | -32.14808 | -60.37809 | 11818 ft | 304 kts | 316° |
| 2026-05-07 14:25 | -32.13188 | -60.39406 | 11413 ft | 303 kts | 316° |
| 2026-05-07 14:25 | -32.11571 | -60.40999 | 11008 ft | 303 kts | 316° |
| 2026-05-07 14:26 | -32.09946 | -60.42598 | 10611 ft | 307 kts | 316° |
| 2026-05-07 14:26 | -32.08291 | -60.44228 | 10269 ft | 311 kts | 316° |
| 2026-05-07 14:26 | -32.06631 | -60.45859 | 10114 ft | 311 kts | 316° |
| 2026-05-07 14:26 | -32.04982 | -60.47476 | 9976 ft | 304 kts | 316° |
| 2026-05-07 14:27 | -32.03385 | -60.49040 | 9846 ft | 295 kts | 315° |
| 2026-05-07 14:27 | -32.01818 | -60.50575 | 9564 ft | 292 kts | 315° |
| 2026-05-07 14:27 | -32.00340 | -60.52026 | 9256 ft | 290 kts | 315° |
| 2026-05-07 14:27 | -31.98796 | -60.53541 | 8940 ft | 288 kts | 315° |
| 2026-05-07 14:28 | -31.97264 | -60.55043 | 8641 ft | 286 kts | 315° |
| 2026-05-07 14:28 | -31.95742 | -60.56536 | 8335 ft | 284 kts | 315° |
| 2026-05-07 14:28 | -31.94228 | -60.58020 | 8037 ft | 283 kts | 315° |
| 2026-05-07 14:28 | -31.92720 | -60.59497 | 7748 ft | 281 kts | 315° |
| 2026-05-07 14:29 | -31.91222 | -60.60963 | 7458 ft | 280 kts | 315° |
| 2026-05-07 14:29 | -31.89723 | -60.62429 | 7163 ft | 280 kts | 315° |
| 2026-05-07 14:29 | -31.88249 | -60.63873 | 6899 ft | 279 kts | 315° |
| 2026-05-07 14:29 | -31.86756 | -60.65339 | 6601 ft | 281 kts | 315° |
| 2026-05-07 14:30 | -31.85252 | -60.66809 | 6305 ft | 281 kts | 315° |
| 2026-05-07 14:30 | -31.83748 | -60.68277 | 5968 ft | 281 kts | 315° |
| 2026-05-07 14:30 | -31.82245 | -60.69743 | 5667 ft | 281 kts | 315° |
| 2026-05-07 14:30 | -31.80730 | -60.71219 | 5373 ft | 283 kts | 315° |
| 2026-05-07 14:31 | -31.79223 | -60.72687 | 5065 ft | 280 kts | 315° |
| 2026-05-07 14:31 | -31.77747 | -60.74123 | 4760 ft | 271 kts | 315° |
| 2026-05-07 14:31 | -31.76302 | -60.75531 | 4546 ft | 267 kts | 314° |
| 2026-05-07 14:31 | -31.74912 | -60.76879 | 4516 ft | 251 kts | 314° |
| 2026-05-07 14:32 | -31.73613 | -60.78136 | 4486 ft | 232 kts | 313° |
| 2026-05-07 14:32 | -31.72394 | -60.79261 | 4471 ft | 220 kts | 323° |
| 2026-05-07 14:32 | -31.70888 | -60.79688 | 4474 ft | 230 kts | 4° |
| 2026-05-07 14:32 | -31.69415 | -60.79008 | 4297 ft | 228 kts | 41° |
| 2026-05-07 14:33 | -31.68204 | -60.77834 | 4143 ft | 225 kts | 45° |
| 2026-05-07 14:33 | -31.67019 | -60.76648 | 3942 ft | 224 kts | 45° |
| 2026-05-07 14:33 | -31.65839 | -60.75470 | 3747 ft | 222 kts | 45° |
| 2026-05-07 14:33 | -31.64664 | -60.74304 | 3558 ft | 221 kts | 45° |
| 2026-05-07 14:34 | -31.63865 | -60.73514 | 3407 ft | 221 kts | 45° |
| 2026-05-07 14:34 | -31.62692 | -60.72360 | 3197 ft | 219 kts | 45° |
| 2026-05-07 14:34 | -31.61537 | -60.71226 | 2997 ft | 219 kts | 45° |
| 2026-05-07 14:34 | -31.60366 | -60.70077 | 2797 ft | 220 kts | 44° |
| 2026-05-07 14:35 | -31.59192 | -60.68928 | 2601 ft | 218 kts | 44° |
| 2026-05-07 14:35 | -31.57990 | -60.67805 | 2501 ft | 219 kts | 33° |
| 2026-05-07 14:35 | -31.56569 | -60.67351 | 2481 ft | 214 kts | 354° |
| 2026-05-07 14:35 | -31.55181 | -60.67852 | 2376 ft | 206 kts | 317° |
| 2026-05-07 14:36 | -31.54297 | -60.69050 | 2305 ft | 187 kts | 285° |
| 2026-05-07 14:36 | -31.54035 | -60.70457 | 2281 ft | 171 kts | 259° |
| 2026-05-07 14:36 | -31.54299 | -60.71774 | 2287 ft | 164 kts | 235° |
| 2026-05-07 14:36 | -31.55105 | -60.72638 | 2291 ft | 157 kts | 210° |
| 2026-05-07 14:37 | -31.56037 | -60.73329 | 2281 ft | 158 kts | 208° |
| 2026-05-07 14:37 | -31.57979 | -60.74583 | 2277 ft | 158 kts | 204° |
| 2026-05-07 14:37 | -31.58972 | -60.75113 | 2283 ft | 154 kts | 203° |
| 2026-05-07 14:38 | -31.59909 | -60.75586 | 2234 ft | 141 kts | 203° |
| 2026-05-07 14:38 | -31.60798 | -60.76028 | 2081 ft | 136 kts | 204° |
| 2026-05-07 14:38 | -31.61651 | -60.76452 | 1927 ft | 127 kts | 205° |
| 2026-05-07 14:38 | -31.62446 | -60.76846 | 1750 ft | 121 kts | 205° |
| 2026-05-07 14:39 | -31.63226 | -60.77234 | 1580 ft | 122 kts | 206° |
| 2026-05-07 14:39 | -31.64011 | -60.77624 | 1439 ft | 124 kts | 205° |
| 2026-05-07 14:39 | -31.64819 | -60.78024 | 1251 ft | 127 kts | 204° |
| 2026-05-07 14:39 | -31.65626 | -60.78423 | 1074 ft | 125 kts | 204° |
| 2026-05-07 14:40 | -31.66423 | -60.78817 | 877 ft | 125 kts | 207° |
| 2026-05-07 14:40 | -31.67253 | -60.79230 | 722 ft | 133 kts | 210° |
| 2026-05-07 14:40 | -31.68113 | -60.79658 | 542 ft | 135 kts | 212° |
| 2026-05-07 14:40 | -31.68997 | -60.80097 | 340 ft | 140 kts | 210° |
| 2026-05-07 14:41 | -31.69908 | -60.80551 | 153 ft | 144 kts | 204° |
| 2026-05-07 14:41 | -31.70778 | -60.80984 | 65 ft | 127 kts | 202° |
| 2026-05-07 14:41 | -31.71416 | -60.81293 | 57 ft | 71 kts | 202° |
| 2026-05-07 14:41 | -31.71729 | -60.81449 | 58 ft | 43 kts | 203° |
| 2026-05-07 14:42 | -31.71958 | -60.81561 | 56 ft | 21 kts | 199° |
| 2026-05-07 14:42 | -31.72042 | -60.81576 | 60 ft | 2 kts | 204° |
| 2026-05-07 14:42 | -31.72044 | -60.81584 | 61 ft | 1 kts | 255° |
| 2026-05-07 14:42 | -31.72038 | -60.81590 | 61 ft | 1 kts | 327° |
| 2026-05-07 14:43 | -31.72020 | -60.81587 | 59 ft | 6 kts | 11° |
| 2026-05-07 14:43 | -31.71953 | -60.81559 | 55 ft | 14 kts | 23° |
| 2026-05-07 14:43 | -31.71838 | -60.81502 | 54 ft | 22 kts | 23° |
| 2026-05-07 14:43 | -31.71750 | -60.81458 | 55 ft | 27 kts | 22° |
| 2026-05-07 14:44 | -31.71578 | -60.81375 | 63 ft | 27 kts | 22° |
| 2026-05-07 14:44 | -31.71408 | -60.81290 | 64 ft | 26 kts | 23° |
| 2026-05-07 14:44 | -31.71250 | -60.81211 | 69 ft | 24 kts | 23° |
| 2026-05-07 14:44 | -31.71101 | -60.81139 | 68 ft | 23 kts | 22° |
| 2026-05-07 14:45 | -31.70958 | -60.81068 | 68 ft | 22 kts | 22° |
| 2026-05-07 14:45 | -31.70818 | -60.81000 | 60 ft | 21 kts | 22° |
| 2026-05-07 14:45 | -31.70725 | -60.80937 | 58 ft | 11 kts | 75° |
| 2026-05-07 14:45 | -31.70745 | -60.80847 | 65 ft | 12 kts | 112° |
| 2026-05-07 14:46 | -31.70777 | -60.80758 | 63 ft | 12 kts | 113° |
| 2026-05-07 14:46 | -31.70804 | -60.80695 | 60 ft | 6 kts | 133° |
| 2026-05-07 14:46 | -31.70841 | -60.80676 | 60 ft | 6 kts | 163° |
| 2026-05-07 14:46 | -31.70874 | -60.80663 | 64 ft | 3 kts | 160° |
| 2026-05-07 14:47 | -31.70884 | -60.80658 | 60 ft | 0 kts | 159° |